sensor_id;sensor_type;location;lat;lon;timestamp;P1;durP1;ratioP1;P2;durP2;ratioP2
21272;SDS011;36726;52.328;10.552;2022-10-04T00:04:29;2.65;;;1.60;;
21272;SDS011;36726;52.328;10.552;2022-10-04T00:09:42;4.07;;;1.60;;
21272;SDS011;36726;52.328;10.552;2022-10-04T00:12:16;3.72;;;1.52;;
21272;SDS011;36726;52.328;10.552;2022-10-04T00:14:48;7.00;;;1.33;;
21272;SDS011;36726;52.328;10.552;2022-10-04T00:17:19;3.25;;;1.40;;
21272;SDS011;36726;52.328;10.552;2022-10-04T00:19:53;4.03;;;1.48;;
21272;SDS011;36726;52.328;10.552;2022-10-04T00:22:24;2.90;;;1.50;;
21272;SDS011;36726;52.328;10.552;2022-10-04T00:27:39;3.65;;;1.60;;
21272;SDS011;36726;52.328;10.552;2022-10-04T00:30:33;3.17;;;1.60;;
21272;SDS011;36726;52.328;10.552;2022-10-04T00:33:02;3.60;;;1.80;;
21272;SDS011;36726;52.328;10.552;2022-10-04T00:40:33;3.47;;;1.83;;
21272;SDS011;36726;52.328;10.552;2022-10-04T00:43:03;4.35;;;1.83;;
21272;SDS011;36726;52.328;10.552;2022-10-04T00:45:36;3.55;;;1.58;;
21272;SDS011;36726;52.328;10.552;2022-10-04T00:51:11;7.70;;;1.50;;
21272;SDS011;36726;52.328;10.552;2022-10-04T00:53:52;5.43;;;1.65;;
21272;SDS011;36726;52.328;10.552;2022-10-04T00:56:29;4.93;;;1.95;;
21272;SDS011;36726;52.328;10.552;2022-10-04T01:01:25;3.08;;;1.75;;
21272;SDS011;36726;52.328;10.552;2022-10-04T01:03:54;4.70;;;1.77;;
21272;SDS011;36726;52.328;10.552;2022-10-04T01:06:25;3.45;;;1.80;;
21272;SDS011;36726;52.328;10.552;2022-10-04T01:08:53;4.85;;;1.95;;
21272;SDS011;36726;52.328;10.552;2022-10-04T01:11:27;3.65;;;1.70;;
21272;SDS011;36726;52.328;10.552;2022-10-04T01:14:18;4.20;;;1.67;;
21272;SDS011;36726;52.328;10.552;2022-10-04T01:16:52;3.95;;;1.50;;
21272;SDS011;36726;52.328;10.552;2022-10-04T01:24:39;4.93;;;1.92;;
21272;SDS011;36726;52.328;10.552;2022-10-04T01:29:56;4.03;;;1.92;;
21272;SDS011;36726;52.328;10.552;2022-10-04T01:32:24;4.47;;;1.70;;
21272;SDS011;36726;52.328;10.552;2022-10-04T01:34:51;2.45;;;1.70;;
21272;SDS011;36726;52.328;10.552;2022-10-04T01:37:17;3.13;;;1.55;;
21272;SDS011;36726;52.328;10.552;2022-10-04T01:39:44;5.63;;;2.28;;
21272;SDS011;36726;52.328;10.552;2022-10-04T01:44:47;4.43;;;2.08;;
21272;SDS011;36726;52.328;10.552;2022-10-04T01:50:16;6.47;;;1.90;;
21272;SDS011;36726;52.328;10.552;2022-10-04T01:52:49;3.58;;;1.45;;
21272;SDS011;36726;52.328;10.552;2022-10-04T01:55:25;4.70;;;2.17;;
21272;SDS011;36726;52.328;10.552;2022-10-04T01:58:01;2.03;;;1.40;;
21272;SDS011;36726;52.328;10.552;2022-10-04T02:00:34;5.88;;;2.08;;
21272;SDS011;36726;52.328;10.552;2022-10-04T02:03:10;6.28;;;1.92;;
21272;SDS011;36726;52.328;10.552;2022-10-04T02:05:50;7.32;;;2.03;;
21272;SDS011;36726;52.328;10.552;2022-10-04T02:08:24;3.30;;;1.60;;
21272;SDS011;36726;52.328;10.552;2022-10-04T02:10:54;4.82;;;1.85;;
21272;SDS011;36726;52.328;10.552;2022-10-04T02:13:23;3.88;;;1.70;;
21272;SDS011;36726;52.328;10.552;2022-10-04T02:15:55;4.03;;;1.83;;
21272;SDS011;36726;52.328;10.552;2022-10-04T02:18:23;2.90;;;1.40;;
21272;SDS011;36726;52.328;10.552;2022-10-04T02:20:52;2.75;;;1.40;;
21272;SDS011;36726;52.328;10.552;2022-10-04T02:23:20;3.25;;;1.77;;
21272;SDS011;36726;52.328;10.552;2022-10-04T02:25:48;7.30;;;1.75;;
21272;SDS011;36726;52.328;10.552;2022-10-04T02:28:15;2.72;;;1.40;;
21272;SDS011;36726;52.328;10.552;2022-10-04T02:30:46;2.28;;;1.40;;
21272;SDS011;36726;52.328;10.552;2022-10-04T02:33:41;3.80;;;1.33;;
21272;SDS011;36726;52.328;10.552;2022-10-04T02:36:10;2.00;;;1.17;;
21272;SDS011;36726;52.328;10.552;2022-10-04T02:38:49;2.60;;;1.45;;
21272;SDS011;36726;52.328;10.552;2022-10-04T02:41:24;5.28;;;1.27;;
21272;SDS011;36726;52.328;10.552;2022-10-04T02:44:07;2.80;;;1.38;;
21272;SDS011;36726;52.328;10.552;2022-10-04T02:46:46;1.65;;;1.13;;
21272;SDS011;36726;52.328;10.552;2022-10-04T02:52:05;2.67;;;1.17;;
21272;SDS011;36726;52.328;10.552;2022-10-04T02:57:28;3.40;;;1.25;;
21272;SDS011;36726;52.328;10.552;2022-10-04T03:00:06;2.80;;;1.52;;
21272;SDS011;36726;52.328;10.552;2022-10-04T03:05:35;2.83;;;1.40;;
21272;SDS011;36726;52.328;10.552;2022-10-04T03:08:03;2.13;;;1.27;;
21272;SDS011;36726;52.328;10.552;2022-10-04T03:10:31;7.03;;;1.60;;
21272;SDS011;36726;52.328;10.552;2022-10-04T03:12:59;2.65;;;1.10;;
21272;SDS011;36726;52.328;10.552;2022-10-04T03:15:26;4.43;;;1.70;;
21272;SDS011;36726;52.328;10.552;2022-10-04T03:17:53;8.27;;;1.23;;
21272;SDS011;36726;52.328;10.552;2022-10-04T03:20:20;3.30;;;1.30;;
21272;SDS011;36726;52.328;10.552;2022-10-04T03:22:48;3.55;;;1.30;;
21272;SDS011;36726;52.328;10.552;2022-10-04T03:25:34;1.40;;;0.98;;
21272;SDS011;36726;52.328;10.552;2022-10-04T03:28:09;4.05;;;1.45;;
21272;SDS011;36726;52.328;10.552;2022-10-04T03:30:36;4.40;;;1.30;;
21272;SDS011;36726;52.328;10.552;2022-10-04T03:33:10;3.25;;;1.40;;
21272;SDS011;36726;52.328;10.552;2022-10-04T03:35:49;1.98;;;1.23;;
21272;SDS011;36726;52.328;10.552;2022-10-04T03:38:20;2.35;;;1.33;;
21272;SDS011;36726;52.328;10.552;2022-10-04T03:40:53;3.95;;;1.55;;
21272;SDS011;36726;52.328;10.552;2022-10-04T03:43:25;7.18;;;1.42;;
21272;SDS011;36726;52.328;10.552;2022-10-04T03:45:59;4.65;;;1.30;;
21272;SDS011;36726;52.328;10.552;2022-10-04T03:48:29;6.13;;;1.60;;
21272;SDS011;36726;52.328;10.552;2022-10-04T03:50:59;4.10;;;1.40;;
21272;SDS011;36726;52.328;10.552;2022-10-04T03:53:30;2.20;;;1.20;;
21272;SDS011;36726;52.328;10.552;2022-10-04T03:56:02;4.97;;;1.40;;
21272;SDS011;36726;52.328;10.552;2022-10-04T03:58:36;4.40;;;1.60;;
21272;SDS011;36726;52.328;10.552;2022-10-04T04:01:06;3.60;;;1.27;;
21272;SDS011;36726;52.328;10.552;2022-10-04T04:03:54;3.28;;;1.27;;
21272;SDS011;36726;52.328;10.552;2022-10-04T04:06:28;3.38;;;1.30;;
21272;SDS011;36726;52.328;10.552;2022-10-04T04:12:10;4.40;;;1.83;;
21272;SDS011;36726;52.328;10.552;2022-10-04T04:14:42;3.38;;;1.60;;
21272;SDS011;36726;52.328;10.552;2022-10-04T04:17:18;2.90;;;1.40;;
21272;SDS011;36726;52.328;10.552;2022-10-04T04:19:58;3.67;;;1.48;;
21272;SDS011;36726;52.328;10.552;2022-10-04T04:22:32;2.92;;;1.27;;
21272;SDS011;36726;52.328;10.552;2022-10-04T04:25:01;2.35;;;1.45;;
21272;SDS011;36726;52.328;10.552;2022-10-04T04:27:34;2.55;;;1.33;;
21272;SDS011;36726;52.328;10.552;2022-10-04T04:30:05;2.45;;;1.52;;
21272;SDS011;36726;52.328;10.552;2022-10-04T04:32:39;11.18;;;1.73;;
21272;SDS011;36726;52.328;10.552;2022-10-04T04:35:29;4.05;;;1.35;;
21272;SDS011;36726;52.328;10.552;2022-10-04T04:38:01;6.35;;;1.40;;
21272;SDS011;36726;52.328;10.552;2022-10-04T04:40:48;2.53;;;1.52;;
21272;SDS011;36726;52.328;10.552;2022-10-04T04:43:22;2.35;;;1.20;;
21272;SDS011;36726;52.328;10.552;2022-10-04T04:45:52;3.33;;;1.25;;
21272;SDS011;36726;52.328;10.552;2022-10-04T04:48:41;3.55;;;1.20;;
21272;SDS011;36726;52.328;10.552;2022-10-04T04:51:11;1.85;;;1.05;;
21272;SDS011;36726;52.328;10.552;2022-10-04T04:53:44;2.42;;;1.38;;
21272;SDS011;36726;52.328;10.552;2022-10-04T04:56:12;3.78;;;1.27;;
21272;SDS011;36726;52.328;10.552;2022-10-04T04:58:45;2.92;;;1.30;;
21272;SDS011;36726;52.328;10.552;2022-10-04T05:01:17;1.30;;;0.82;;
21272;SDS011;36726;52.328;10.552;2022-10-04T05:06:34;4.90;;;1.70;;
21272;SDS011;36726;52.328;10.552;2022-10-04T05:09:03;2.85;;;1.50;;
21272;SDS011;36726;52.328;10.552;2022-10-04T05:11:36;2.70;;;1.33;;
21272;SDS011;36726;52.328;10.552;2022-10-04T05:14:05;3.33;;;1.40;;
21272;SDS011;36726;52.328;10.552;2022-10-04T05:16:37;2.70;;;1.30;;
21272;SDS011;36726;52.328;10.552;2022-10-04T05:19:16;5.43;;;1.63;;
21272;SDS011;36726;52.328;10.552;2022-10-04T05:21:48;5.80;;;1.50;;
21272;SDS011;36726;52.328;10.552;2022-10-04T05:26:53;4.60;;;1.33;;
21272;SDS011;36726;52.328;10.552;2022-10-04T05:29:25;3.33;;;1.50;;
21272;SDS011;36726;52.328;10.552;2022-10-04T05:35:15;4.45;;;1.67;;
21272;SDS011;36726;52.328;10.552;2022-10-04T05:37:52;4.53;;;2.03;;
21272;SDS011;36726;52.328;10.552;2022-10-04T05:43:26;3.58;;;1.40;;
21272;SDS011;36726;52.328;10.552;2022-10-04T05:46:12;7.53;;;1.63;;
21272;SDS011;36726;52.328;10.552;2022-10-04T05:48:44;4.38;;;2.03;;
21272;SDS011;36726;52.328;10.552;2022-10-04T05:51:21;5.05;;;1.55;;
21272;SDS011;36726;52.328;10.552;2022-10-04T05:53:51;6.93;;;1.85;;
21272;SDS011;36726;52.328;10.552;2022-10-04T06:09:46;6.40;;;1.65;;
21272;SDS011;36726;52.328;10.552;2022-10-04T06:20:49;2.35;;;1.63;;
21272;SDS011;36726;52.328;10.552;2022-10-04T06:23:27;4.03;;;1.75;;
21272;SDS011;36726;52.328;10.552;2022-10-04T06:26:08;5.38;;;2.05;;
21272;SDS011;36726;52.328;10.552;2022-10-04T06:28:40;5.95;;;2.60;;
21272;SDS011;36726;52.328;10.552;2022-10-04T06:37:02;3.65;;;2.13;;
21272;SDS011;36726;52.328;10.552;2022-10-04T06:45:06;4.88;;;1.95;;
21272;SDS011;36726;52.328;10.552;2022-10-04T06:50:54;5.97;;;1.65;;
21272;SDS011;36726;52.328;10.552;2022-10-04T06:56:54;3.00;;;1.73;;
21272;SDS011;36726;52.328;10.552;2022-10-04T07:02:15;5.18;;;2.08;;
21272;SDS011;36726;52.328;10.552;2022-10-04T07:04:57;3.25;;;1.70;;
21272;SDS011;36726;52.328;10.552;2022-10-04T07:07:36;2.90;;;1.60;;
21272;SDS011;36726;52.328;10.552;2022-10-04T07:12:33;3.78;;;2.38;;
21272;SDS011;36726;52.328;10.552;2022-10-04T07:15:08;5.82;;;2.45;;
21272;SDS011;36726;52.328;10.552;2022-10-04T07:17:44;4.80;;;2.95;;
21272;SDS011;36726;52.328;10.552;2022-10-04T07:20:21;5.13;;;2.13;;
21272;SDS011;36726;52.328;10.552;2022-10-04T07:22:54;4.88;;;2.03;;
21272;SDS011;36726;52.328;10.552;2022-10-04T07:25:43;5.88;;;2.08;;
21272;SDS011;36726;52.328;10.552;2022-10-04T07:28:14;5.03;;;1.73;;
21272;SDS011;36726;52.328;10.552;2022-10-04T07:31:08;7.47;;;2.38;;
21272;SDS011;36726;52.328;10.552;2022-10-04T07:33:43;6.55;;;1.83;;
21272;SDS011;36726;52.328;10.552;2022-10-04T07:36:20;4.10;;;1.90;;
21272;SDS011;36726;52.328;10.552;2022-10-04T07:38:52;5.43;;;2.03;;
21272;SDS011;36726;52.328;10.552;2022-10-04T07:41:28;4.50;;;1.77;;
21272;SDS011;36726;52.328;10.552;2022-10-04T07:44:01;5.07;;;2.17;;
21272;SDS011;36726;52.328;10.552;2022-10-04T07:49:23;5.78;;;2.10;;
21272;SDS011;36726;52.328;10.552;2022-10-04T07:57:20;5.55;;;2.10;;
21272;SDS011;36726;52.328;10.552;2022-10-04T08:00:02;2.35;;;1.60;;
21272;SDS011;36726;52.328;10.552;2022-10-04T08:05:58;4.07;;;1.92;;
21272;SDS011;36726;52.328;10.552;2022-10-04T08:11:27;6.25;;;1.95;;
21272;SDS011;36726;52.328;10.552;2022-10-04T08:14:26;7.35;;;1.90;;
21272;SDS011;36726;52.328;10.552;2022-10-04T08:22:51;5.22;;;2.05;;
21272;SDS011;36726;52.328;10.552;2022-10-04T08:25:46;1.95;;;1.20;;
21272;SDS011;36726;52.328;10.552;2022-10-04T08:28:41;4.05;;;1.80;;
21272;SDS011;36726;52.328;10.552;2022-10-04T08:31:37;5.07;;;1.80;;
21272;SDS011;36726;52.328;10.552;2022-10-04T08:38:11;6.30;;;2.38;;
21272;SDS011;36726;52.328;10.552;2022-10-04T09:08:28;5.38;;;1.98;;
21272;SDS011;36726;52.328;10.552;2022-10-04T09:13:53;3.45;;;1.98;;
21272;SDS011;36726;52.328;10.552;2022-10-04T09:26:54;5.40;;;2.08;;
21272;SDS011;36726;52.328;10.552;2022-10-04T09:30:18;3.38;;;1.58;;
21272;SDS011;36726;52.328;10.552;2022-10-04T09:35:45;4.07;;;1.88;;
21272;SDS011;36726;52.328;10.552;2022-10-04T10:00:34;4.53;;;1.60;;
21272;SDS011;36726;52.328;10.552;2022-10-04T10:03:20;3.25;;;1.73;;
21272;SDS011;36726;52.328;10.552;2022-10-04T10:17:37;5.05;;;2.10;;
21272;SDS011;36726;52.328;10.552;2022-10-04T10:26:05;4.45;;;1.83;;
21272;SDS011;36726;52.328;10.552;2022-10-04T10:42:59;3.35;;;1.58;;
21272;SDS011;36726;52.328;10.552;2022-10-04T10:47:59;3.42;;;1.60;;
21272;SDS011;36726;52.328;10.552;2022-10-04T11:15:41;3.05;;;1.45;;
21272;SDS011;36726;52.328;10.552;2022-10-04T11:21:33;3.03;;;1.45;;
21272;SDS011;36726;52.328;10.552;2022-10-04T11:24:29;10.75;;;1.35;;
21272;SDS011;36726;52.328;10.552;2022-10-04T11:27:10;4.78;;;1.00;;
21272;SDS011;36726;52.328;10.552;2022-10-04T11:29:49;6.18;;;1.00;;
21272;SDS011;36726;52.328;10.552;2022-10-04T11:35:28;2.00;;;0.82;;
21272;SDS011;36726;52.328;10.552;2022-10-04T11:38:23;5.13;;;1.10;;
21272;SDS011;36726;52.328;10.552;2022-10-04T11:55:19;2.60;;;1.10;;
21272;SDS011;36726;52.328;10.552;2022-10-04T11:58:16;5.75;;;1.40;;
21272;SDS011;36726;52.328;10.552;2022-10-04T12:06:13;4.03;;;1.55;;
21272;SDS011;36726;52.328;10.552;2022-10-04T12:08:58;3.38;;;1.30;;
21272;SDS011;36726;52.328;10.552;2022-10-04T12:18:20;3.28;;;1.38;;
21272;SDS011;36726;52.328;10.552;2022-10-04T12:21:09;2.67;;;1.02;;
21272;SDS011;36726;52.328;10.552;2022-10-04T12:31:48;1.55;;;0.98;;
21272;SDS011;36726;52.328;10.552;2022-10-04T12:34:24;4.60;;;2.10;;
21272;SDS011;36726;52.328;10.552;2022-10-04T12:39:42;4.20;;;1.33;;
21272;SDS011;36726;52.328;10.552;2022-10-04T12:50:52;5.25;;;1.45;;
21272;SDS011;36726;52.328;10.552;2022-10-04T12:56:19;2.88;;;1.63;;
21272;SDS011;36726;52.328;10.552;2022-10-04T12:59:03;2.00;;;1.40;;
21272;SDS011;36726;52.328;10.552;2022-10-04T13:04:47;3.00;;;1.58;;
21272;SDS011;36726;52.328;10.552;2022-10-04T13:07:28;3.25;;;1.23;;
21272;SDS011;36726;52.328;10.552;2022-10-04T13:13:03;3.78;;;1.17;;
21272;SDS011;36726;52.328;10.552;2022-10-04T13:15:50;2.78;;;1.50;;
21272;SDS011;36726;52.328;10.552;2022-10-04T13:19:30;3.40;;;1.75;;
21272;SDS011;36726;52.328;10.552;2022-10-04T13:30:51;3.50;;;1.77;;
21272;SDS011;36726;52.328;10.552;2022-10-04T13:33:32;3.35;;;1.58;;
21272;SDS011;36726;52.328;10.552;2022-10-04T13:36:15;2.20;;;1.85;;
21272;SDS011;36726;52.328;10.552;2022-10-04T13:46:36;2.75;;;1.45;;
21272;SDS011;36726;52.328;10.552;2022-10-04T13:55:22;5.35;;;1.77;;
21272;SDS011;36726;52.328;10.552;2022-10-04T14:09:33;3.17;;;1.73;;
21272;SDS011;36726;52.328;10.552;2022-10-04T14:35:00;3.03;;;1.80;;
21272;SDS011;36726;52.328;10.552;2022-10-04T14:49:16;3.17;;;1.55;;
21272;SDS011;36726;52.328;10.552;2022-10-04T14:54:39;4.18;;;1.70;;
21272;SDS011;36726;52.328;10.552;2022-10-04T14:57:59;2.88;;;1.45;;
21272;SDS011;36726;52.328;10.552;2022-10-04T15:00:17;4.25;;;1.52;;
21272;SDS011;36726;52.328;10.552;2022-10-04T15:05:57;4.00;;;1.83;;
21272;SDS011;36726;52.328;10.552;2022-10-04T15:17:42;1.60;;;1.17;;
21272;SDS011;36726;52.328;10.552;2022-10-04T15:20:23;1.95;;;1.17;;
21272;SDS011;36726;52.328;10.552;2022-10-04T15:25:52;5.13;;;1.88;;
21272;SDS011;36726;52.328;10.552;2022-10-04T15:28:32;6.10;;;1.80;;
21272;SDS011;36726;52.328;10.552;2022-10-04T15:41:44;3.35;;;1.65;;
21272;SDS011;36726;52.328;10.552;2022-10-04T15:50:19;4.10;;;1.42;;
21272;SDS011;36726;52.328;10.552;2022-10-04T15:58:45;2.28;;;1.30;;
21272;SDS011;36726;52.328;10.552;2022-10-04T16:13:20;3.15;;;1.65;;
21272;SDS011;36726;52.328;10.552;2022-10-04T16:15:36;3.92;;;1.75;;
21272;SDS011;36726;52.328;10.552;2022-10-04T16:31:58;6.72;;;1.88;;
21272;SDS011;36726;52.328;10.552;2022-10-04T16:34:43;4.07;;;1.80;;
21272;SDS011;36726;52.328;10.552;2022-10-04T16:42:30;4.25;;;2.35;;
21272;SDS011;36726;52.328;10.552;2022-10-04T16:50:08;4.03;;;2.25;;
21272;SDS011;36726;52.328;10.552;2022-10-04T16:55:42;4.90;;;2.50;;
21272;SDS011;36726;52.328;10.552;2022-10-04T17:03:53;3.22;;;2.20;;
21272;SDS011;36726;52.328;10.552;2022-10-04T17:06:48;7.97;;;2.40;;
21272;SDS011;36726;52.328;10.552;2022-10-04T17:12:19;4.13;;;2.10;;
21272;SDS011;36726;52.328;10.552;2022-10-04T17:17:54;5.47;;;2.75;;
21272;SDS011;36726;52.328;10.552;2022-10-04T17:20:26;10.35;;;3.83;;
21272;SDS011;36726;52.328;10.552;2022-10-04T17:23:27;10.00;;;3.85;;
21272;SDS011;36726;52.328;10.552;2022-10-04T17:34:29;7.47;;;2.47;;
21272;SDS011;36726;52.328;10.552;2022-10-04T17:37:01;6.15;;;3.28;;
21272;SDS011;36726;52.328;10.552;2022-10-04T17:39:42;7.50;;;3.40;;
21272;SDS011;36726;52.328;10.552;2022-10-04T17:42:29;5.07;;;3.38;;
21272;SDS011;36726;52.328;10.552;2022-10-04T17:50:51;6.65;;;3.85;;
21272;SDS011;36726;52.328;10.552;2022-10-04T17:53:44;7.65;;;3.75;;
21272;SDS011;36726;52.328;10.552;2022-10-04T17:56:39;5.13;;;3.50;;
21272;SDS011;36726;52.328;10.552;2022-10-04T17:59:19;9.95;;;3.95;;
21272;SDS011;36726;52.328;10.552;2022-10-04T18:02:00;6.63;;;4.30;;
21272;SDS011;36726;52.328;10.552;2022-10-04T18:04:36;7.93;;;4.20;;
21272;SDS011;36726;52.328;10.552;2022-10-04T18:07:19;6.40;;;3.83;;
21272;SDS011;36726;52.328;10.552;2022-10-04T18:09:54;5.75;;;3.50;;
21272;SDS011;36726;52.328;10.552;2022-10-04T18:12:33;6.63;;;3.80;;
21272;SDS011;36726;52.328;10.552;2022-10-04T18:17:41;5.15;;;3.10;;
21272;SDS011;36726;52.328;10.552;2022-10-04T18:20:20;6.47;;;3.20;;
21272;SDS011;36726;52.328;10.552;2022-10-04T18:26:04;4.88;;;2.80;;
21272;SDS011;36726;52.328;10.552;2022-10-04T18:28:36;5.72;;;3.20;;
21272;SDS011;36726;52.328;10.552;2022-10-04T18:33:51;5.30;;;2.88;;
21272;SDS011;36726;52.328;10.552;2022-10-04T18:36:20;4.03;;;2.78;;
21272;SDS011;36726;52.328;10.552;2022-10-04T18:39:03;5.82;;;3.10;;
21272;SDS011;36726;52.328;10.552;2022-10-04T18:41:43;5.55;;;3.35;;
21272;SDS011;36726;52.328;10.552;2022-10-04T18:44:24;5.35;;;2.97;;
21272;SDS011;36726;52.328;10.552;2022-10-04T18:47:17;7.20;;;3.72;;
21272;SDS011;36726;52.328;10.552;2022-10-04T18:49:55;6.57;;;3.78;;
21272;SDS011;36726;52.328;10.552;2022-10-04T19:00:24;5.18;;;2.80;;
21272;SDS011;36726;52.328;10.552;2022-10-04T19:06:29;4.45;;;2.72;;
21272;SDS011;36726;52.328;10.552;2022-10-04T19:11:42;7.80;;;3.00;;
21272;SDS011;36726;52.328;10.552;2022-10-04T19:14:37;6.72;;;3.00;;
21272;SDS011;36726;52.328;10.552;2022-10-04T19:17:32;5.20;;;3.15;;
21272;SDS011;36726;52.328;10.552;2022-10-04T19:23:02;5.15;;;3.10;;
21272;SDS011;36726;52.328;10.552;2022-10-04T19:25:52;9.07;;;3.80;;
21272;SDS011;36726;52.328;10.552;2022-10-04T19:28:42;6.55;;;3.10;;
21272;SDS011;36726;52.328;10.552;2022-10-04T19:31:25;5.53;;;3.30;;
21272;SDS011;36726;52.328;10.552;2022-10-04T19:33:54;4.15;;;3.03;;
21272;SDS011;36726;52.328;10.552;2022-10-04T19:36:24;6.03;;;3.25;;
21272;SDS011;36726;52.328;10.552;2022-10-04T19:39:30;7.03;;;3.22;;
21272;SDS011;36726;52.328;10.552;2022-10-04T19:42:13;4.57;;;2.92;;
21272;SDS011;36726;52.328;10.552;2022-10-04T19:44:49;5.03;;;3.03;;
21272;SDS011;36726;52.328;10.552;2022-10-04T19:52:44;6.80;;;3.08;;
21272;SDS011;36726;52.328;10.552;2022-10-04T20:01:12;5.75;;;2.58;;
21272;SDS011;36726;52.328;10.552;2022-10-04T20:03:43;5.20;;;2.70;;
21272;SDS011;36726;52.328;10.552;2022-10-04T20:06:19;4.68;;;2.65;;
21272;SDS011;36726;52.328;10.552;2022-10-04T20:19:16;3.50;;;2.53;;
21272;SDS011;36726;52.328;10.552;2022-10-04T20:35:00;6.95;;;3.00;;
21272;SDS011;36726;52.328;10.552;2022-10-04T20:40:10;6.18;;;3.00;;
21272;SDS011;36726;52.328;10.552;2022-10-04T20:45:41;4.25;;;2.33;;
21272;SDS011;36726;52.328;10.552;2022-10-04T20:48:16;4.18;;;2.35;;
21272;SDS011;36726;52.328;10.552;2022-10-04T20:50:45;6.75;;;2.28;;
21272;SDS011;36726;52.328;10.552;2022-10-04T20:53:18;4.55;;;2.30;;
21272;SDS011;36726;52.328;10.552;2022-10-04T20:55:47;4.50;;;2.50;;
21272;SDS011;36726;52.328;10.552;2022-10-04T20:58:27;5.43;;;2.67;;
21272;SDS011;36726;52.328;10.552;2022-10-04T21:00:59;4.05;;;2.28;;
21272;SDS011;36726;52.328;10.552;2022-10-04T21:07:00;3.20;;;2.20;;
21272;SDS011;36726;52.328;10.552;2022-10-04T21:09:29;5.07;;;2.28;;
21272;SDS011;36726;52.328;10.552;2022-10-04T21:11:56;6.45;;;1.92;;
21272;SDS011;36726;52.328;10.552;2022-10-04T21:14:24;3.45;;;1.90;;
21272;SDS011;36726;52.328;10.552;2022-10-04T21:16:52;3.20;;;1.98;;
21272;SDS011;36726;52.328;10.552;2022-10-04T21:21:59;7.53;;;2.38;;
21272;SDS011;36726;52.328;10.552;2022-10-04T21:26:57;4.82;;;2.08;;
21272;SDS011;36726;52.328;10.552;2022-10-04T21:29:24;3.55;;;2.05;;
21272;SDS011;36726;52.328;10.552;2022-10-04T21:31:50;3.95;;;2.20;;
21272;SDS011;36726;52.328;10.552;2022-10-04T21:34:17;3.13;;;2.30;;
21272;SDS011;36726;52.328;10.552;2022-10-04T21:37:03;3.17;;;1.90;;
21272;SDS011;36726;52.328;10.552;2022-10-04T21:39:30;2.47;;;1.88;;
21272;SDS011;36726;52.328;10.552;2022-10-04T21:41:57;3.00;;;2.13;;
21272;SDS011;36726;52.328;10.552;2022-10-04T21:44:23;2.90;;;2.10;;
21272;SDS011;36726;52.328;10.552;2022-10-04T21:46:51;3.45;;;2.00;;
21272;SDS011;36726;52.328;10.552;2022-10-04T21:49:17;2.55;;;2.15;;
21272;SDS011;36726;52.328;10.552;2022-10-04T21:51:44;5.03;;;1.83;;
21272;SDS011;36726;52.328;10.552;2022-10-04T21:54:11;3.50;;;1.83;;
21272;SDS011;36726;52.328;10.552;2022-10-04T21:56:37;3.35;;;1.92;;
21272;SDS011;36726;52.328;10.552;2022-10-04T21:59:04;3.10;;;1.75;;
21272;SDS011;36726;52.328;10.552;2022-10-04T22:01:30;4.25;;;1.67;;
21272;SDS011;36726;52.328;10.552;2022-10-04T22:03:57;3.40;;;1.98;;
21272;SDS011;36726;52.328;10.552;2022-10-04T22:06:23;3.90;;;1.63;;
21272;SDS011;36726;52.328;10.552;2022-10-04T22:08:50;4.03;;;2.03;;
21272;SDS011;36726;52.328;10.552;2022-10-04T22:11:17;2.55;;;1.88;;
21272;SDS011;36726;52.328;10.552;2022-10-04T22:13:44;3.47;;;1.95;;
21272;SDS011;36726;52.328;10.552;2022-10-04T22:16:11;4.00;;;1.90;;
21272;SDS011;36726;52.328;10.552;2022-10-04T22:18:38;1.88;;;1.63;;
21272;SDS011;36726;52.328;10.552;2022-10-04T22:21:05;2.30;;;1.90;;
21272;SDS011;36726;52.328;10.552;2022-10-04T22:23:35;4.28;;;2.00;;
21272;SDS011;36726;52.328;10.552;2022-10-04T22:26:18;2.95;;;1.70;;
21272;SDS011;36726;52.328;10.552;2022-10-04T22:28:53;3.50;;;1.80;;
21272;SDS011;36726;52.328;10.552;2022-10-04T22:31:25;5.47;;;2.03;;
21272;SDS011;36726;52.328;10.552;2022-10-04T22:33:53;4.28;;;2.13;;
21272;SDS011;36726;52.328;10.552;2022-10-04T22:36:25;3.22;;;1.80;;
21272;SDS011;36726;52.328;10.552;2022-10-04T22:41:35;3.45;;;2.08;;
21272;SDS011;36726;52.328;10.552;2022-10-04T22:44:14;2.78;;;1.80;;
21272;SDS011;36726;52.328;10.552;2022-10-04T22:46:45;6.88;;;2.95;;
21272;SDS011;36726;52.328;10.552;2022-10-04T22:49:15;4.60;;;2.45;;
21272;SDS011;36726;52.328;10.552;2022-10-04T22:51:46;3.85;;;2.67;;
21272;SDS011;36726;52.328;10.552;2022-10-04T22:54:20;3.67;;;2.33;;
21272;SDS011;36726;52.328;10.552;2022-10-04T22:56:50;4.25;;;2.22;;
21272;SDS011;36726;52.328;10.552;2022-10-04T22:59:18;5.88;;;2.22;;
21272;SDS011;36726;52.328;10.552;2022-10-04T23:01:46;3.50;;;2.00;;
21272;SDS011;36726;52.328;10.552;2022-10-04T23:04:20;4.13;;;2.08;;
21272;SDS011;36726;52.328;10.552;2022-10-04T23:06:48;3.20;;;2.03;;
21272;SDS011;36726;52.328;10.552;2022-10-04T23:09:16;3.00;;;1.90;;
21272;SDS011;36726;52.328;10.552;2022-10-04T23:11:43;6.40;;;2.28;;
21272;SDS011;36726;52.328;10.552;2022-10-04T23:14:10;3.05;;;2.28;;
21272;SDS011;36726;52.328;10.552;2022-10-04T23:16:36;3.08;;;2.00;;
21272;SDS011;36726;52.328;10.552;2022-10-04T23:19:11;4.90;;;1.70;;
21272;SDS011;36726;52.328;10.552;2022-10-04T23:21:43;2.78;;;1.83;;
21272;SDS011;36726;52.328;10.552;2022-10-04T23:26:38;3.92;;;1.92;;
21272;SDS011;36726;52.328;10.552;2022-10-04T23:29:06;4.00;;;2.38;;
21272;SDS011;36726;52.328;10.552;2022-10-04T23:31:53;3.28;;;2.35;;
21272;SDS011;36726;52.328;10.552;2022-10-04T23:34:27;3.58;;;2.03;;
21272;SDS011;36726;52.328;10.552;2022-10-04T23:36:58;4.55;;;2.10;;
21272;SDS011;36726;52.328;10.552;2022-10-04T23:39:34;2.95;;;1.90;;
21272;SDS011;36726;52.328;10.552;2022-10-04T23:42:03;2.60;;;1.90;;
21272;SDS011;36726;52.328;10.552;2022-10-04T23:44:38;4.18;;;2.20;;
21272;SDS011;36726;52.328;10.552;2022-10-04T23:47:12;2.80;;;1.88;;
21272;SDS011;36726;52.328;10.552;2022-10-04T23:49:40;2.72;;;1.80;;
21272;SDS011;36726;52.328;10.552;2022-10-04T23:52:09;3.90;;;1.85;;
21272;SDS011;36726;52.328;10.552;2022-10-04T23:54:43;5.05;;;2.25;;
21272;SDS011;36726;52.328;10.552;2022-10-04T23:57:10;4.68;;;1.88;;
21272;SDS011;36726;52.328;10.552;2022-10-04T23:59:44;2.50;;;1.65;;
